createdAt,value
2022-10-03T00:02:00.461Z,5.78
2022-10-03T00:04:49.641Z,6.70
2022-10-03T00:08:05.236Z,6.33
2022-10-03T00:11:12.593Z,6.65
2022-10-03T00:14:06.967Z,6.40
2022-10-03T00:17:05.857Z,6.25
2022-10-03T00:20:06.204Z,6.05
2022-10-03T00:22:59.169Z,6.20
2022-10-03T00:25:42.813Z,5.30
2022-10-03T00:28:55.321Z,5.97
2022-10-03T00:31:45.180Z,6.47
2022-10-03T00:34:44.519Z,6.15
2022-10-03T00:37:27.542Z,5.92
2022-10-03T00:40:29.300Z,5.70
2022-10-03T00:43:26.885Z,5.72
2022-10-03T00:46:18.492Z,6.12
2022-10-03T00:48:58.784Z,6.20
2022-10-03T00:51:54.668Z,5.67
2022-10-03T00:54:53.058Z,5.40
2022-10-03T00:58:01.042Z,5.17
2022-10-03T01:00:36.593Z,6.28
2022-10-03T01:03:36.159Z,5.30
2022-10-03T01:06:34.449Z,5.37
2022-10-03T01:09:37.704Z,5.50
2022-10-03T01:12:47.557Z,4.97
2022-10-03T01:15:48.697Z,5.25
2022-10-03T01:18:29.679Z,5.08
2022-10-03T01:21:42.292Z,4.75
2022-10-03T01:24:44.261Z,4.83
2022-10-03T01:27:27.107Z,4.67
2022-10-03T01:30:24.538Z,4.90
2022-10-03T01:33:21.935Z,4.35
2022-10-03T01:36:28.462Z,4.25
2022-10-03T01:39:22.114Z,4.62
2022-10-03T01:42:08.719Z,4.08
2022-10-03T01:44:58.436Z,4.60
2022-10-03T01:47:57.276Z,4.90
2022-10-03T01:51:00.074Z,5.08
2022-10-03T01:53:46.174Z,4.47
2022-10-03T01:56:32.638Z,4.70
2022-10-03T01:59:21.450Z,4.78
2022-10-03T02:02:35.172Z,4.65
2022-10-03T02:05:38.584Z,4.75
2022-10-03T02:08:25.574Z,4.65
2022-10-03T02:11:10.463Z,4.80
2022-10-03T02:13:53.834Z,4.92
2022-10-03T02:16:48.839Z,5.05
2022-10-03T02:19:40.573Z,5.40
2022-10-03T02:22:36.750Z,5.00
2022-10-03T02:25:47.862Z,4.90
2022-10-03T02:28:51.089Z,4.40
2022-10-03T02:32:03.894Z,4.85
2022-10-03T02:35:12.782Z,4.90
2022-10-03T02:38:10.787Z,5.10
2022-10-03T02:41:33.815Z,5.50
2022-10-03T02:44:26.237Z,4.42
2022-10-03T02:47:46.427Z,4.50
2022-10-03T02:50:46.164Z,4.40
2022-10-03T02:54:12.170Z,5.00
2022-10-03T02:59:30.904Z,5.03
2022-10-03T03:02:20.521Z,4.55
2022-10-03T03:05:16.397Z,4.50
2022-10-03T03:08:15.002Z,4.87
2022-10-03T03:11:04.907Z,4.80
2022-10-03T03:14:09.676Z,4.78
2022-10-03T03:17:23.751Z,4.00
2022-10-03T03:20:40.700Z,4.50
2022-10-03T03:23:45.548Z,4.28
2022-10-03T03:26:51.840Z,4.37
2022-10-03T03:29:58.705Z,4.60
2022-10-03T03:32:41.837Z,5.35
2022-10-03T03:35:48.541Z,3.87
2022-10-03T03:38:47.116Z,4.40
2022-10-03T03:41:50.495Z,4.30
2022-10-03T03:44:35.417Z,4.65
2022-10-03T03:47:32.569Z,4.17
2022-10-03T03:50:28.189Z,4.42
2022-10-03T03:53:24.925Z,4.12
2022-10-03T03:56:21.877Z,4.30
2022-10-03T03:58:59.894Z,3.75
2022-10-03T04:02:00.214Z,4.58
2022-10-03T04:04:58.837Z,4.62
2022-10-03T04:07:57.491Z,4.67
2022-10-03T04:11:23.708Z,4.35
2022-10-03T04:14:17.651Z,4.55
2022-10-03T04:17:44.912Z,5.12
2022-10-03T04:21:00.402Z,5.00
2022-10-03T04:24:00.506Z,4.42
2022-10-03T04:27:06.339Z,4.80
2022-10-03T04:30:14.497Z,4.37
2022-10-03T04:33:09.527Z,5.62
2022-10-03T04:36:27.627Z,5.33
2022-10-03T04:39:24.522Z,5.03
2022-10-03T04:42:19.692Z,6.10
2022-10-03T04:45:10.902Z,5.20
2022-10-03T04:48:03.008Z,5.65
2022-10-03T04:50:54.981Z,5.75
2022-10-03T04:53:50.627Z,5.50
2022-10-03T04:56:33.785Z,5.92
2022-10-03T04:59:23.025Z,6.00
2022-10-03T05:02:06.721Z,5.83
2022-10-03T05:04:55.781Z,6.08
2022-10-03T05:07:45.219Z,5.87
2022-10-03T05:10:43.607Z,5.90
2022-10-03T05:13:48.309Z,5.90
2022-10-03T05:16:31.889Z,6.15
2022-10-03T05:19:12.510Z,6.72
2022-10-03T05:21:58.842Z,5.83
2022-10-03T05:24:57.578Z,5.15
2022-10-03T05:27:56.153Z,5.70
2022-10-03T05:30:54.646Z,6.25
2022-10-03T05:33:37.709Z,5.45
2022-10-03T05:36:36.009Z,5.80
2022-10-03T05:39:42.868Z,6.03
2022-10-03T05:42:46.130Z,5.20
2022-10-03T05:45:32.743Z,4.05
2022-10-03T05:48:31.028Z,5.12
2022-10-03T05:51:43.375Z,4.28
2022-10-03T05:54:32.552Z,4.20
2022-10-03T05:57:16.190Z,4.25
2022-10-03T06:00:02.665Z,3.60
2022-10-03T06:03:09.266Z,3.70
2022-10-03T06:06:08.579Z,3.77
2022-10-03T06:09:19.815Z,3.83
2022-10-03T06:12:20.126Z,4.17
2022-10-03T06:15:00.512Z,4.17
2022-10-03T06:17:54.034Z,4.15
2022-10-03T06:20:55.489Z,4.03
2022-10-03T06:23:49.643Z,4.47
2022-10-03T06:26:48.206Z,3.80
2022-10-03T06:29:37.925Z,4.37
2022-10-03T06:32:39.294Z,3.70
2022-10-03T06:35:50.255Z,3.87
2022-10-03T06:39:18.328Z,3.80
2022-10-03T06:42:29.527Z,3.83
2022-10-03T06:45:44.778Z,4.17
2022-10-03T06:48:39.830Z,4.17
2022-10-03T06:51:58.247Z,4.00
2022-10-03T06:55:01.616Z,3.95
2022-10-03T06:58:02.070Z,3.60
2022-10-03T07:00:56.849Z,3.65
2022-10-03T07:04:24.793Z,3.50
2022-10-03T07:07:11.281Z,3.37
2022-10-03T07:10:26.705Z,3.98
2022-10-03T07:13:24.480Z,4.35
2022-10-03T07:16:32.085Z,3.83
2022-10-03T07:19:23.033Z,3.65
2022-10-03T07:22:25.280Z,3.65
2022-10-03T07:25:46.330Z,3.05
2022-10-03T07:28:49.450Z,3.95
2022-10-03T07:32:01.841Z,3.92
2022-10-03T07:35:10.965Z,3.52
2022-10-03T07:38:35.162Z,4.00
2022-10-03T07:41:35.422Z,3.65
2022-10-03T07:44:52.048Z,3.80
2022-10-03T07:48:04.733Z,3.70
2022-10-03T07:51:09.995Z,3.50
2022-10-03T07:54:27.270Z,3.77
2022-10-03T07:57:04.856Z,3.80
2022-10-03T07:59:57.821Z,3.02
2022-10-03T08:03:21.314Z,3.15
2022-10-03T08:06:24.285Z,2.77
2022-10-03T08:09:25.559Z,2.80
2022-10-03T08:12:29.544Z,2.58
2022-10-03T08:15:07.253Z,2.65
2022-10-03T08:17:57.444Z,2.70
2022-10-03T08:20:55.512Z,3.00
2022-10-03T08:24:01.259Z,2.37
2022-10-03T08:27:02.923Z,2.60
2022-10-03T08:30:10.847Z,2.33
2022-10-03T08:33:00.619Z,2.80
2022-10-03T08:36:10.039Z,3.12
2022-10-03T08:38:52.775Z,2.42
2022-10-03T08:41:56.007Z,3.22
2022-10-03T08:45:03.740Z,2.67
2022-10-03T08:47:42.528Z,2.58
2022-10-03T08:50:31.450Z,2.25
2022-10-03T08:53:31.711Z,2.33
2022-10-03T08:56:23.025Z,2.10
2022-10-03T08:59:12.422Z,2.50
2022-10-03T09:02:18.531Z,2.67
2022-10-03T09:05:30.819Z,1.90
2022-10-03T09:08:27.429Z,2.17
2022-10-03T09:11:41.409Z,2.47
2022-10-03T09:14:36.755Z,2.55
2022-10-03T09:20:26.885Z,2.20
2022-10-03T09:23:30.156Z,2.45
2022-10-03T09:26:46.851Z,2.15
2022-10-03T09:29:42.337Z,1.60
2022-10-03T09:32:34.749Z,2.17
2022-10-03T09:35:46.120Z,1.80
2022-10-03T09:38:52.797Z,1.98
2022-10-03T09:42:04.201Z,1.50
2022-10-03T09:44:51.169Z,1.80
2022-10-03T09:48:11.495Z,1.70
2022-10-03T09:51:12.276Z,1.60
2022-10-03T09:54:26.143Z,2.75
2022-10-03T09:57:22.600Z,2.30
2022-10-03T10:00:06.147Z,2.02
2022-10-03T10:03:12.503Z,1.98
2022-10-03T10:06:08.806Z,1.95
2022-10-03T10:09:22.136Z,2.30
2022-10-03T10:12:08.666Z,1.80
2022-10-03T10:15:00.835Z,2.40
2022-10-03T10:18:16.341Z,1.82
2022-10-03T10:21:16.496Z,2.10
2022-10-03T10:24:26.243Z,2.00
2022-10-03T10:27:35.394Z,1.70
2022-10-03T10:30:33.962Z,1.80
2022-10-03T10:33:24.638Z,2.30
2022-10-03T10:36:50.797Z,1.80
2022-10-03T10:39:30.951Z,1.98
2022-10-03T10:42:29.459Z,1.95
2022-10-03T10:45:36.321Z,2.05
2022-10-03T10:48:40.205Z,1.90
2022-10-03T10:51:36.973Z,1.75
2022-10-03T10:54:46.644Z,1.70
2022-10-03T10:57:54.984Z,1.80
2022-10-03T11:00:50.329Z,2.10
2022-10-03T11:03:48.596Z,2.45
2022-10-03T11:06:32.535Z,1.52
2022-10-03T11:09:24.759Z,1.50
2022-10-03T11:12:40.091Z,1.35
2022-10-03T11:15:57.431Z,1.32
2022-10-03T11:19:03.397Z,1.80
2022-10-03T11:22:00.062Z,1.80
2022-10-03T11:25:08.115Z,1.98
2022-10-03T11:28:29.644Z,2.00
2022-10-03T11:31:40.318Z,1.87
2022-10-03T11:34:49.809Z,1.65
2022-10-03T11:38:08.402Z,2.62
2022-10-03T11:41:23.371Z,1.60
2022-10-03T11:44:24.051Z,1.20
2022-10-03T11:47:22.783Z,1.25
2022-10-03T11:50:15.143Z,1.40
2022-10-03T11:53:08.177Z,4.72
2022-10-03T11:55:57.720Z,1.42
2022-10-03T11:58:46.612Z,1.85
2022-10-03T12:01:51.335Z,1.20
2022-10-03T12:05:04.216Z,1.20
2022-10-03T12:08:14.952Z,1.42
2022-10-03T12:11:06.270Z,1.10
2022-10-03T12:14:10.759Z,1.30
2022-10-03T12:17:20.403Z,1.22
2022-10-03T12:20:06.756Z,1.75
2022-10-03T12:23:12.490Z,1.00
2022-10-03T12:25:47.393Z,1.22
2022-10-03T12:28:40.760Z,1.10
2022-10-03T12:31:25.098Z,1.30
2022-10-03T12:37:43.956Z,1.37
2022-10-03T12:40:36.440Z,1.25
2022-10-03T12:43:51.799Z,1.40
2022-10-03T12:46:41.635Z,1.52
2022-10-03T12:49:20.817Z,1.40
2022-10-03T12:52:03.230Z,1.30
2022-10-03T12:55:12.618Z,1.40
2022-10-03T12:58:02.039Z,1.50
2022-10-03T13:01:07.382Z,1.30
2022-10-03T13:04:00.800Z,1.40
2022-10-03T13:07:03.773Z,1.72
2022-10-03T13:10:09.454Z,1.25
2022-10-03T13:12:50.976Z,1.20
2022-10-03T13:15:45.370Z,1.37
2022-10-03T13:18:32.069Z,1.50
2022-10-03T13:21:45.105Z,1.77
2022-10-03T13:24:11.663Z,1.07
2022-10-03T13:27:07.433Z,1.15
2022-10-03T13:29:49.351Z,1.25
2022-10-03T13:32:41.059Z,1.20
2022-10-03T13:35:42.531Z,1.30
2022-10-03T13:38:54.922Z,1.10
2022-10-03T13:41:58.394Z,1.45
2022-10-03T13:44:41.664Z,1.40
2022-10-03T13:47:51.839Z,1.37
2022-10-03T13:51:05.767Z,1.27
2022-10-03T13:53:51.831Z,5.22
2022-10-03T13:56:51.000Z,1.70
2022-10-03T13:59:46.959Z,1.30
2022-10-03T14:02:36.840Z,1.40
2022-10-03T14:05:34.988Z,1.27
2022-10-03T14:08:39.749Z,1.60
2022-10-03T14:11:38.715Z,1.50
2022-10-03T14:14:25.573Z,1.30
2022-10-03T14:17:22.361Z,1.32
2022-10-03T14:20:34.791Z,1.20
2022-10-03T14:23:30.102Z,1.00
2022-10-03T14:26:23.112Z,1.20
2022-10-03T14:29:18.158Z,1.50
2022-10-03T14:31:59.584Z,1.72
2022-10-03T14:35:00.894Z,1.60
2022-10-03T14:37:41.242Z,6.92
2022-10-03T14:40:28.516Z,3.17
2022-10-03T14:43:29.936Z,3.25
2022-10-03T14:46:04.507Z,1.72
2022-10-03T14:48:46.325Z,1.42
2022-10-03T14:51:26.360Z,1.10
2022-10-03T14:54:05.818Z,1.40
2022-10-03T14:56:45.720Z,1.70
2022-10-03T14:59:25.900Z,1.90
2022-10-03T15:02:01.187Z,2.02
2022-10-03T15:04:42.918Z,2.83
2022-10-03T15:07:15.994Z,1.60
2022-10-03T15:09:50.572Z,1.70
2022-10-03T15:12:28.858Z,2.92
2022-10-03T15:15:13.626Z,3.08
2022-10-03T15:17:52.503Z,2.62
2022-10-03T15:20:38.289Z,2.67
2022-10-03T15:23:35.092Z,2.30
2022-10-03T15:26:18.954Z,2.33
2022-10-03T15:28:55.619Z,2.45
2022-10-03T15:31:37.957Z,5.37
2022-10-03T15:34:15.994Z,7.53
2022-10-03T15:36:52.483Z,3.30
2022-10-03T15:39:37.706Z,1.92
2022-10-03T15:42:25.747Z,2.10
2022-10-03T15:45:07.087Z,12.70
2022-10-03T15:47:44.285Z,3.62
2022-10-03T15:50:34.281Z,2.27
2022-10-03T15:53:36.145Z,3.77
2022-10-03T15:56:15.717Z,6.67
2022-10-03T15:58:51.872Z,2.47
2022-10-03T16:01:38.380Z,3.77
2022-10-03T16:04:38.322Z,2.65
2022-10-03T16:07:28.966Z,2.27
2022-10-03T16:10:23.863Z,2.15
2022-10-03T16:13:03.746Z,2.47
2022-10-03T16:16:00.954Z,2.10
2022-10-03T16:18:48.712Z,3.42
2022-10-03T16:22:12.822Z,6.25
2022-10-03T16:25:07.443Z,2.27
2022-10-03T16:27:43.316Z,2.02
2022-10-03T16:30:20.787Z,2.60
2022-10-03T16:33:32.759Z,2.30
2022-10-03T16:36:16.572Z,2.42
2022-10-03T16:38:59.936Z,2.30
2022-10-03T16:41:35.913Z,2.30
2022-10-03T16:44:38.757Z,1.90
2022-10-03T16:47:12.374Z,2.05
2022-10-03T16:50:16.005Z,2.47
2022-10-03T16:52:54.545Z,1.82
2022-10-03T16:55:37.369Z,1.77
2022-10-03T16:58:34.395Z,1.70
2022-10-03T17:01:26.946Z,2.05
2022-10-03T17:03:54.348Z,1.75
2022-10-03T17:06:38.678Z,2.33
2022-10-03T17:09:28.408Z,1.95
2022-10-03T17:12:02.448Z,2.20
2022-10-03T17:14:42.142Z,2.50
2022-10-03T17:17:42.598Z,2.47
2022-10-03T17:20:38.313Z,2.00
2022-10-03T17:23:38.239Z,2.62
2022-10-03T17:26:18.094Z,2.35
2022-10-03T17:29:13.444Z,2.35
2022-10-03T17:32:05.480Z,2.30
2022-10-03T17:34:54.015Z,2.50
2022-10-03T17:37:55.916Z,2.25
2022-10-03T17:40:48.032Z,2.60
2022-10-03T17:43:36.295Z,2.47
2022-10-03T17:46:41.512Z,2.60
2022-10-03T17:49:39.705Z,2.60
2022-10-03T17:52:16.785Z,2.52
2022-10-03T17:55:04.807Z,2.37
2022-10-03T17:57:50.755Z,3.33
2022-10-03T18:00:33.343Z,2.50
2022-10-03T18:03:20.501Z,2.35
2022-10-03T18:05:58.063Z,2.60
2022-10-03T18:08:39.139Z,2.90
2022-10-03T18:11:20.755Z,2.83
2022-10-03T18:14:02.505Z,2.65
2022-10-03T18:16:41.680Z,2.90
2022-10-03T18:19:28.551Z,2.90
2022-10-03T18:22:12.793Z,2.50
2022-10-03T18:25:35.348Z,2.80
2022-10-03T18:28:21.301Z,2.77
2022-10-03T18:31:03.969Z,2.80
2022-10-03T18:33:58.992Z,3.40
2022-10-03T18:36:39.390Z,2.75
2022-10-03T18:39:22.500Z,2.70
2022-10-03T18:42:01.864Z,2.70
2022-10-03T18:44:36.495Z,3.00
2022-10-03T18:47:38.689Z,2.40
2022-10-03T18:50:30.522Z,3.37
2022-10-03T18:53:28.231Z,2.65
2022-10-03T18:56:08.958Z,2.40
2022-10-03T18:58:45.334Z,2.77
2022-10-03T19:01:47.870Z,2.20
2022-10-03T19:04:40.247Z,2.52
2022-10-03T19:07:30.026Z,2.60
2022-10-03T19:10:16.790Z,2.52
2022-10-03T19:13:10.901Z,2.22
2022-10-03T19:16:29.887Z,2.60
2022-10-03T19:19:42.095Z,2.52
2022-10-03T19:22:17.489Z,2.33
2022-10-03T19:24:58.798Z,2.27
2022-10-03T19:27:50.018Z,3.15
2022-10-03T19:30:26.286Z,2.40
2022-10-03T19:33:19.331Z,2.67
2022-10-03T19:35:53.095Z,2.27
2022-10-03T19:38:29.609Z,2.33
2022-10-03T19:41:40.840Z,2.27
2022-10-03T19:44:27.046Z,2.22
2022-10-03T19:47:21.559Z,2.15
2022-10-03T19:52:56.266Z,2.20
2022-10-03T19:55:36.578Z,2.72
2022-10-03T19:58:24.553Z,1.92
2022-10-03T20:01:01.495Z,2.25
2022-10-03T20:03:44.998Z,2.25
2022-10-03T20:06:28.025Z,2.05
2022-10-03T20:09:20.373Z,2.02
2022-10-03T20:12:10.341Z,1.85
2022-10-03T20:14:44.266Z,2.65
2022-10-03T20:17:23.426Z,1.87
2022-10-03T20:19:59.486Z,2.12
2022-10-03T20:22:37.743Z,2.55
2022-10-03T20:25:28.541Z,2.42
2022-10-03T20:28:02.580Z,2.90
2022-10-03T20:30:54.089Z,2.90
2022-10-03T20:33:35.797Z,2.12
2022-10-03T20:36:33.307Z,2.65
2022-10-03T20:39:29.060Z,2.40
2022-10-03T20:42:13.636Z,2.37
2022-10-03T20:45:10.117Z,2.47
2022-10-03T20:48:06.641Z,2.60
2022-10-03T20:50:45.674Z,2.67
2022-10-03T20:53:27.959Z,2.37
2022-10-03T20:56:07.203Z,2.47
2022-10-03T20:58:52.857Z,2.10
2022-10-03T21:01:32.483Z,2.10
2022-10-03T21:04:34.202Z,2.02
2022-10-03T21:07:31.341Z,2.37
2022-10-03T21:10:27.054Z,2.42
2022-10-03T21:13:04.586Z,2.33
2022-10-03T21:15:47.730Z,2.30
2022-10-03T21:18:37.332Z,2.12
2022-10-03T21:21:26.848Z,2.08
2022-10-03T21:24:26.226Z,1.92
2022-10-03T21:27:07.800Z,2.22
2022-10-03T21:29:42.053Z,2.33
2022-10-03T21:32:25.411Z,1.92
2022-10-03T21:35:23.318Z,2.27
2022-10-03T21:38:27.130Z,1.98
2022-10-03T21:41:30.531Z,2.30
2022-10-03T21:44:06.446Z,2.10
2022-10-03T21:47:02.851Z,2.15
2022-10-03T21:49:55.918Z,2.47
2022-10-03T21:52:54.556Z,2.25
2022-10-03T21:55:55.062Z,1.85
2022-10-03T21:58:50.575Z,2.12
2022-10-03T22:01:42.545Z,2.10
2022-10-03T22:04:34.795Z,2.27
2022-10-03T22:07:12.714Z,2.75
2022-10-03T22:09:53.752Z,2.27
2022-10-03T22:12:32.558Z,2.50
2022-10-03T22:15:13.039Z,2.33
2022-10-03T22:18:08.137Z,2.15
2022-10-03T22:21:14.131Z,2.10
2022-10-03T22:23:58.707Z,3.50
2022-10-03T22:26:36.239Z,3.52
2022-10-03T22:29:37.450Z,2.33
2022-10-03T22:32:23.365Z,1.92
2022-10-03T22:35:24.210Z,2.30
2022-10-03T22:37:58.409Z,2.05
2022-10-03T22:40:31.897Z,2.02
2022-10-03T22:43:06.476Z,2.35
2022-10-03T22:45:42.405Z,2.40
2022-10-03T22:48:22.815Z,2.70
2022-10-03T22:50:56.687Z,2.58
2022-10-03T22:53:33.281Z,2.07
2022-10-03T22:56:30.224Z,2.15
2022-10-03T22:59:06.732Z,2.15
2022-10-03T23:01:45.295Z,2.33
2022-10-03T23:04:47.265Z,3.08
2022-10-03T23:07:58.164Z,2.10
2022-10-03T23:11:00.381Z,2.75
2022-10-03T23:13:44.502Z,5.28
2022-10-03T23:16:39.969Z,2.58
2022-10-03T23:19:18.292Z,2.30
2022-10-03T23:21:53.249Z,2.40
2022-10-03T23:24:35.797Z,2.20
2022-10-03T23:27:49.187Z,2.60
2022-10-03T23:30:29.765Z,2.42
2022-10-03T23:33:02.994Z,2.22
2022-10-03T23:35:47.476Z,2.15
2022-10-03T23:38:40.212Z,2.03
2022-10-03T23:41:16.810Z,2.50
2022-10-03T23:43:58.988Z,2.62
2022-10-03T23:46:33.655Z,2.62
2022-10-03T23:49:08.036Z,2.90
2022-10-03T23:51:41.614Z,3.40
2022-10-03T23:54:15.911Z,3.02
2022-10-03T23:56:50.746Z,3.02
2022-10-03T23:59:27.750Z,2.50
